sensor_id;sensor_type;location;lat;lon;timestamp;P1;durP1;ratioP1;P2;durP2;ratioP2
37869;SDS011;62531;53.326;-1.368;2022-07-29T00:02:45;3.95;;;1.40;;
37869;SDS011;62531;53.326;-1.368;2022-07-29T00:06:46;4.95;;;1.15;;
37869;SDS011;62531;53.326;-1.368;2022-07-29T00:10:47;3.80;;;1.13;;
37869;SDS011;62531;53.326;-1.368;2022-07-29T00:14:48;3.85;;;0.80;;
37869;SDS011;62531;53.326;-1.368;2022-07-29T00:18:50;3.58;;;0.90;;
37869;SDS011;62531;53.326;-1.368;2022-07-29T00:22:51;3.93;;;1.33;;
37869;SDS011;62531;53.326;-1.368;2022-07-29T00:26:54;4.10;;;0.93;;
37869;SDS011;62531;53.326;-1.368;2022-07-29T00:30:55;5.03;;;1.02;;
37869;SDS011;62531;53.326;-1.368;2022-07-29T00:34:56;4.30;;;1.35;;
37869;SDS011;62531;53.326;-1.368;2022-07-29T00:39:16;3.83;;;0.93;;
37869;SDS011;62531;53.326;-1.368;2022-07-29T00:43:17;3.95;;;1.10;;
37869;SDS011;62531;53.326;-1.368;2022-07-29T00:47:19;3.72;;;1.08;;
37869;SDS011;62531;53.326;-1.368;2022-07-29T00:51:20;3.57;;;0.90;;
37869;SDS011;62531;53.326;-1.368;2022-07-29T00:55:21;3.45;;;0.88;;
37869;SDS011;62531;53.326;-1.368;2022-07-29T00:59:24;3.92;;;1.25;;
37869;SDS011;62531;53.326;-1.368;2022-07-29T01:03:27;3.97;;;1.03;;
37869;SDS011;62531;53.326;-1.368;2022-07-29T01:07:28;3.75;;;1.00;;
37869;SDS011;62531;53.326;-1.368;2022-07-29T01:11:31;4.00;;;1.17;;
37869;SDS011;62531;53.326;-1.368;2022-07-29T01:15:36;3.67;;;1.17;;
37869;SDS011;62531;53.326;-1.368;2022-07-29T01:19:48;4.00;;;1.10;;
37869;SDS011;62531;53.326;-1.368;2022-07-29T01:33:17;3.23;;;0.70;;
37869;SDS011;62531;53.326;-1.368;2022-07-29T01:42:06;3.22;;;1.00;;
37869;SDS011;62531;53.326;-1.368;2022-07-29T01:46:20;4.30;;;1.07;;
37869;SDS011;62531;53.326;-1.368;2022-07-29T01:50:49;3.10;;;0.80;;
37869;SDS011;62531;53.326;-1.368;2022-07-29T01:55:02;4.50;;;1.60;;
37869;SDS011;62531;53.326;-1.368;2022-07-29T01:59:10;4.10;;;1.02;;
37869;SDS011;62531;53.326;-1.368;2022-07-29T02:03:12;3.70;;;1.07;;
37869;SDS011;62531;53.326;-1.368;2022-07-29T02:07:17;4.38;;;1.00;;
37869;SDS011;62531;53.326;-1.368;2022-07-29T02:11:20;4.93;;;1.05;;
37869;SDS011;62531;53.326;-1.368;2022-07-29T02:15:22;3.40;;;0.80;;
37869;SDS011;62531;53.326;-1.368;2022-07-29T02:19:29;3.80;;;1.17;;
37869;SDS011;62531;53.326;-1.368;2022-07-29T02:23:34;4.57;;;0.90;;
37869;SDS011;62531;53.326;-1.368;2022-07-29T02:27:36;3.77;;;1.17;;
37869;SDS011;62531;53.326;-1.368;2022-07-29T02:31:38;3.63;;;0.93;;
37869;SDS011;62531;53.326;-1.368;2022-07-29T02:35:44;3.42;;;0.98;;
37869;SDS011;62531;53.326;-1.368;2022-07-29T02:39:48;3.92;;;1.15;;
37869;SDS011;62531;53.326;-1.368;2022-07-29T02:43:55;4.03;;;1.10;;
37869;SDS011;62531;53.326;-1.368;2022-07-29T02:48:00;3.95;;;1.13;;
37869;SDS011;62531;53.326;-1.368;2022-07-29T02:56:27;3.67;;;1.03;;
37869;SDS011;62531;53.326;-1.368;2022-07-29T03:00:37;5.10;;;1.10;;
37869;SDS011;62531;53.326;-1.368;2022-07-29T03:04:39;3.25;;;1.02;;
37869;SDS011;62531;53.326;-1.368;2022-07-29T03:08:43;3.43;;;1.10;;
37869;SDS011;62531;53.326;-1.368;2022-07-29T03:12:46;3.80;;;1.25;;
37869;SDS011;62531;53.326;-1.368;2022-07-29T03:16:48;4.22;;;1.40;;
37869;SDS011;62531;53.326;-1.368;2022-07-29T03:20:51;3.50;;;1.10;;
37869;SDS011;62531;53.326;-1.368;2022-07-29T03:24:52;3.70;;;1.23;;
37869;SDS011;62531;53.326;-1.368;2022-07-29T03:28:54;7.25;;;0.88;;
37869;SDS011;62531;53.326;-1.368;2022-07-29T03:32:55;4.43;;;0.90;;
37869;SDS011;62531;53.326;-1.368;2022-07-29T03:36:56;4.40;;;1.13;;
37869;SDS011;62531;53.326;-1.368;2022-07-29T03:40:58;4.05;;;1.10;;
37869;SDS011;62531;53.326;-1.368;2022-07-29T03:45:07;3.42;;;0.90;;
37869;SDS011;62531;53.326;-1.368;2022-07-29T03:49:11;4.13;;;1.10;;
37869;SDS011;62531;53.326;-1.368;2022-07-29T03:53:14;3.08;;;1.00;;
37869;SDS011;62531;53.326;-1.368;2022-07-29T03:57:16;3.72;;;0.90;;
37869;SDS011;62531;53.326;-1.368;2022-07-29T04:01:23;3.63;;;1.13;;
37869;SDS011;62531;53.326;-1.368;2022-07-29T04:05:27;3.67;;;1.10;;
37869;SDS011;62531;53.326;-1.368;2022-07-29T04:09:28;3.30;;;1.27;;
37869;SDS011;62531;53.326;-1.368;2022-07-29T04:13:29;4.03;;;1.00;;
37869;SDS011;62531;53.326;-1.368;2022-07-29T04:17:32;3.87;;;1.13;;
37869;SDS011;62531;53.326;-1.368;2022-07-29T04:21:38;2.92;;;0.90;;
37869;SDS011;62531;53.326;-1.368;2022-07-29T04:25:40;3.42;;;1.00;;
37869;SDS011;62531;53.326;-1.368;2022-07-29T04:29:41;3.57;;;1.27;;
37869;SDS011;62531;53.326;-1.368;2022-07-29T04:33:43;3.72;;;1.15;;
37869;SDS011;62531;53.326;-1.368;2022-07-29T04:37:44;3.38;;;0.90;;
37869;SDS011;62531;53.326;-1.368;2022-07-29T04:41:45;3.88;;;1.30;;
37869;SDS011;62531;53.326;-1.368;2022-07-29T04:45:46;3.83;;;1.20;;
37869;SDS011;62531;53.326;-1.368;2022-07-29T04:49:47;3.40;;;1.10;;
37869;SDS011;62531;53.326;-1.368;2022-07-29T04:53:48;3.90;;;1.15;;
37869;SDS011;62531;53.326;-1.368;2022-07-29T04:57:49;4.53;;;1.03;;
37869;SDS011;62531;53.326;-1.368;2022-07-29T05:01:51;3.47;;;1.00;;
37869;SDS011;62531;53.326;-1.368;2022-07-29T05:05:53;5.47;;;1.15;;
37869;SDS011;62531;53.326;-1.368;2022-07-29T05:09:54;3.97;;;1.30;;
37869;SDS011;62531;53.326;-1.368;2022-07-29T05:13:58;4.53;;;1.40;;
37869;SDS011;62531;53.326;-1.368;2022-07-29T05:17:59;3.92;;;1.10;;
37869;SDS011;62531;53.326;-1.368;2022-07-29T05:22:01;3.67;;;1.10;;
37869;SDS011;62531;53.326;-1.368;2022-07-29T05:26:02;3.47;;;1.10;;
37869;SDS011;62531;53.326;-1.368;2022-07-29T05:30:04;3.55;;;1.30;;
37869;SDS011;62531;53.326;-1.368;2022-07-29T05:34:07;3.85;;;0.80;;
37869;SDS011;62531;53.326;-1.368;2022-07-29T05:38:08;3.40;;;0.90;;
37869;SDS011;62531;53.326;-1.368;2022-07-29T05:42:09;4.05;;;1.00;;
37869;SDS011;62531;53.326;-1.368;2022-07-29T05:46:10;3.17;;;0.80;;
37869;SDS011;62531;53.326;-1.368;2022-07-29T05:50:12;3.33;;;1.03;;
37869;SDS011;62531;53.326;-1.368;2022-07-29T05:54:13;4.07;;;1.15;;
37869;SDS011;62531;53.326;-1.368;2022-07-29T05:58:14;4.15;;;1.48;;
37869;SDS011;62531;53.326;-1.368;2022-07-29T06:02:16;4.30;;;1.40;;
37869;SDS011;62531;53.326;-1.368;2022-07-29T06:06:18;4.23;;;1.00;;
37869;SDS011;62531;53.326;-1.368;2022-07-29T06:10:19;4.10;;;1.50;;
37869;SDS011;62531;53.326;-1.368;2022-07-29T06:14:20;3.50;;;1.08;;
37869;SDS011;62531;53.326;-1.368;2022-07-29T06:18:22;4.67;;;1.47;;
37869;SDS011;62531;53.326;-1.368;2022-07-29T06:22:24;4.18;;;1.23;;
37869;SDS011;62531;53.326;-1.368;2022-07-29T06:26:25;3.78;;;0.93;;
37869;SDS011;62531;53.326;-1.368;2022-07-29T06:30:26;3.70;;;1.10;;
37869;SDS011;62531;53.326;-1.368;2022-07-29T06:34:30;3.78;;;1.20;;
37869;SDS011;62531;53.326;-1.368;2022-07-29T06:38:32;3.15;;;0.93;;
37869;SDS011;62531;53.326;-1.368;2022-07-29T06:42:33;3.95;;;0.82;;
37869;SDS011;62531;53.326;-1.368;2022-07-29T06:46:34;3.03;;;0.90;;
37869;SDS011;62531;53.326;-1.368;2022-07-29T06:50:36;3.17;;;1.00;;
37869;SDS011;62531;53.326;-1.368;2022-07-29T06:54:38;6.40;;;1.40;;
37869;SDS011;62531;53.326;-1.368;2022-07-29T06:58:40;7.93;;;1.57;;
37869;SDS011;62531;53.326;-1.368;2022-07-29T07:02:42;6.65;;;1.50;;
37869;SDS011;62531;53.326;-1.368;2022-07-29T07:06:43;5.50;;;1.55;;
37869;SDS011;62531;53.326;-1.368;2022-07-29T07:10:45;5.63;;;2.00;;
37869;SDS011;62531;53.326;-1.368;2022-07-29T07:14:49;6.00;;;1.60;;
37869;SDS011;62531;53.326;-1.368;2022-07-29T07:18:50;6.78;;;2.10;;
37869;SDS011;62531;53.326;-1.368;2022-07-29T07:22:51;6.45;;;2.03;;
37869;SDS011;62531;53.326;-1.368;2022-07-29T07:26:53;8.07;;;2.30;;
37869;SDS011;62531;53.326;-1.368;2022-07-29T07:30:54;6.53;;;2.40;;
37869;SDS011;62531;53.326;-1.368;2022-07-29T07:34:55;7.68;;;2.00;;
37869;SDS011;62531;53.326;-1.368;2022-07-29T07:38:56;5.97;;;1.90;;
37869;SDS011;62531;53.326;-1.368;2022-07-29T07:42:57;7.53;;;2.20;;
37869;SDS011;62531;53.326;-1.368;2022-07-29T07:46:59;5.35;;;1.73;;
37869;SDS011;62531;53.326;-1.368;2022-07-29T07:51:00;7.17;;;2.00;;
37869;SDS011;62531;53.326;-1.368;2022-07-29T07:55:02;7.63;;;1.90;;
37869;SDS011;62531;53.326;-1.368;2022-07-29T07:59:03;7.13;;;1.90;;
37869;SDS011;62531;53.326;-1.368;2022-07-29T08:03:05;6.63;;;2.15;;
37869;SDS011;62531;53.326;-1.368;2022-07-29T08:07:06;5.67;;;1.57;;
37869;SDS011;62531;53.326;-1.368;2022-07-29T08:11:09;7.53;;;1.92;;
37869;SDS011;62531;53.326;-1.368;2022-07-29T08:15:10;6.18;;;1.88;;
37869;SDS011;62531;53.326;-1.368;2022-07-29T08:19:12;7.00;;;1.57;;
37869;SDS011;62531;53.326;-1.368;2022-07-29T08:23:13;7.60;;;1.75;;
37869;SDS011;62531;53.326;-1.368;2022-07-29T08:27:15;8.10;;;2.38;;
37869;SDS011;62531;53.326;-1.368;2022-07-29T08:31:16;7.30;;;1.83;;
37869;SDS011;62531;53.326;-1.368;2022-07-29T08:35:18;5.88;;;1.63;;
37869;SDS011;62531;53.326;-1.368;2022-07-29T08:39:20;7.63;;;2.80;;
37869;SDS011;62531;53.326;-1.368;2022-07-29T08:43:22;6.18;;;1.70;;
37869;SDS011;62531;53.326;-1.368;2022-07-29T08:47:23;6.13;;;1.70;;
37869;SDS011;62531;53.326;-1.368;2022-07-29T08:51:26;4.78;;;1.88;;
37869;SDS011;62531;53.326;-1.368;2022-07-29T08:55:28;7.55;;;1.73;;
37869;SDS011;62531;53.326;-1.368;2022-07-29T08:59:30;6.90;;;1.50;;
37869;SDS011;62531;53.326;-1.368;2022-07-29T09:03:36;6.10;;;1.60;;
37869;SDS011;62531;53.326;-1.368;2022-07-29T09:07:39;5.93;;;1.90;;
37869;SDS011;62531;53.326;-1.368;2022-07-29T09:11:43;6.63;;;1.90;;
37869;SDS011;62531;53.326;-1.368;2022-07-29T09:15:45;6.45;;;1.77;;
37869;SDS011;62531;53.326;-1.368;2022-07-29T09:19:46;5.82;;;1.90;;
37869;SDS011;62531;53.326;-1.368;2022-07-29T09:24:09;7.13;;;1.42;;
37869;SDS011;62531;53.326;-1.368;2022-07-29T09:28:11;6.60;;;1.77;;
37869;SDS011;62531;53.326;-1.368;2022-07-29T09:32:19;8.02;;;1.90;;
37869;SDS011;62531;53.326;-1.368;2022-07-29T09:36:21;9.80;;;2.03;;
37869;SDS011;62531;53.326;-1.368;2022-07-29T09:40:23;8.57;;;2.20;;
37869;SDS011;62531;53.326;-1.368;2022-07-29T09:44:26;6.22;;;1.63;;
37869;SDS011;62531;53.326;-1.368;2022-07-29T09:48:40;6.55;;;1.77;;
37869;SDS011;62531;53.326;-1.368;2022-07-29T09:52:48;7.17;;;1.87;;
37869;SDS011;62531;53.326;-1.368;2022-07-29T09:56:51;6.13;;;1.65;;
37869;SDS011;62531;53.326;-1.368;2022-07-29T10:00:54;7.70;;;1.95;;
37869;SDS011;62531;53.326;-1.368;2022-07-29T10:04:56;9.50;;;1.73;;
37869;SDS011;62531;53.326;-1.368;2022-07-29T10:09:07;9.83;;;1.97;;
37869;SDS011;62531;53.326;-1.368;2022-07-29T10:13:10;7.53;;;2.05;;
37869;SDS011;62531;53.326;-1.368;2022-07-29T10:17:13;5.85;;;1.17;;
37869;SDS011;62531;53.326;-1.368;2022-07-29T10:21:15;6.87;;;1.80;;
37869;SDS011;62531;53.326;-1.368;2022-07-29T10:25:17;7.88;;;1.70;;
37869;SDS011;62531;53.326;-1.368;2022-07-29T10:29:21;8.52;;;1.80;;
37869;SDS011;62531;53.326;-1.368;2022-07-29T10:33:47;6.73;;;1.40;;
37869;SDS011;62531;53.326;-1.368;2022-07-29T10:38:04;7.95;;;1.88;;
37869;SDS011;62531;53.326;-1.368;2022-07-29T10:42:28;6.28;;;1.40;;
37869;SDS011;62531;53.326;-1.368;2022-07-29T10:46:34;7.28;;;2.30;;
37869;SDS011;62531;53.326;-1.368;2022-07-29T10:50:59;7.83;;;1.87;;
37869;SDS011;62531;53.326;-1.368;2022-07-29T10:55:03;6.05;;;1.65;;
37869;SDS011;62531;53.326;-1.368;2022-07-29T11:16:57;6.17;;;1.77;;
37869;SDS011;62531;53.326;-1.368;2022-07-29T11:21:01;5.88;;;1.42;;
37869;SDS011;62531;53.326;-1.368;2022-07-29T11:25:15;5.57;;;2.00;;
37869;SDS011;62531;53.326;-1.368;2022-07-29T11:29:19;5.28;;;1.77;;
37869;SDS011;62531;53.326;-1.368;2022-07-29T11:33:27;5.50;;;1.60;;
37869;SDS011;62531;53.326;-1.368;2022-07-29T11:37:32;6.53;;;1.58;;
37869;SDS011;62531;53.326;-1.368;2022-07-29T11:41:34;6.88;;;1.63;;
37869;SDS011;62531;53.326;-1.368;2022-07-29T11:45:46;10.83;;;1.63;;
37869;SDS011;62531;53.326;-1.368;2022-07-29T11:49:48;8.32;;;1.60;;
37869;SDS011;62531;53.326;-1.368;2022-07-29T11:53:51;6.93;;;1.30;;
37869;SDS011;62531;53.326;-1.368;2022-07-29T11:57:56;4.90;;;1.20;;
37869;SDS011;62531;53.326;-1.368;2022-07-29T12:02:02;4.95;;;1.33;;
37869;SDS011;62531;53.326;-1.368;2022-07-29T12:06:12;7.40;;;1.92;;
37869;SDS011;62531;53.326;-1.368;2022-07-29T12:10:14;4.80;;;1.90;;
37869;SDS011;62531;53.326;-1.368;2022-07-29T12:14:28;5.67;;;1.60;;
37869;SDS011;62531;53.326;-1.368;2022-07-29T12:18:31;6.10;;;1.45;;
37869;SDS011;62531;53.326;-1.368;2022-07-29T12:22:34;5.82;;;1.48;;
37869;SDS011;62531;53.326;-1.368;2022-07-29T12:26:48;4.60;;;1.30;;
37869;SDS011;62531;53.326;-1.368;2022-07-29T12:31:14;6.50;;;1.30;;
37869;SDS011;62531;53.326;-1.368;2022-07-29T12:35:18;5.70;;;1.70;;
37869;SDS011;62531;53.326;-1.368;2022-07-29T12:39:19;7.17;;;1.47;;
37869;SDS011;62531;53.326;-1.368;2022-07-29T12:43:22;5.97;;;1.40;;
37869;SDS011;62531;53.326;-1.368;2022-07-29T12:47:24;5.22;;;1.40;;
37869;SDS011;62531;53.326;-1.368;2022-07-29T12:51:32;4.50;;;1.55;;
37869;SDS011;62531;53.326;-1.368;2022-07-29T12:55:48;6.23;;;1.50;;
37869;SDS011;62531;53.326;-1.368;2022-07-29T13:00:03;5.55;;;1.88;;
37869;SDS011;62531;53.326;-1.368;2022-07-29T13:04:11;6.07;;;1.48;;
37869;SDS011;62531;53.326;-1.368;2022-07-29T13:08:28;5.20;;;1.60;;
37869;SDS011;62531;53.326;-1.368;2022-07-29T13:12:29;7.20;;;1.65;;
37869;SDS011;62531;53.326;-1.368;2022-07-29T13:16:30;5.80;;;1.35;;
37869;SDS011;62531;53.326;-1.368;2022-07-29T13:20:32;8.50;;;2.30;;
37869;SDS011;62531;53.326;-1.368;2022-07-29T13:24:34;5.40;;;1.70;;
37869;SDS011;62531;53.326;-1.368;2022-07-29T13:28:50;5.78;;;1.50;;
37869;SDS011;62531;53.326;-1.368;2022-07-29T13:32:51;5.65;;;1.63;;
37869;SDS011;62531;53.326;-1.368;2022-07-29T13:36:53;6.97;;;1.83;;
37869;SDS011;62531;53.326;-1.368;2022-07-29T13:40:54;5.90;;;1.40;;
37869;SDS011;62531;53.326;-1.368;2022-07-29T13:44:55;4.50;;;1.10;;
37869;SDS011;62531;53.326;-1.368;2022-07-29T13:48:56;5.23;;;1.20;;
37869;SDS011;62531;53.326;-1.368;2022-07-29T13:52:58;7.15;;;1.85;;
37869;SDS011;62531;53.326;-1.368;2022-07-29T13:56:59;7.00;;;1.80;;
37869;SDS011;62531;53.326;-1.368;2022-07-29T14:01:00;5.17;;;1.70;;
37869;SDS011;62531;53.326;-1.368;2022-07-29T14:05:01;5.53;;;1.70;;
37869;SDS011;62531;53.326;-1.368;2022-07-29T14:09:03;7.25;;;1.70;;
37869;SDS011;62531;53.326;-1.368;2022-07-29T14:13:09;6.88;;;1.92;;
37869;SDS011;62531;53.326;-1.368;2022-07-29T14:17:10;6.90;;;1.90;;
37869;SDS011;62531;53.326;-1.368;2022-07-29T14:21:11;6.90;;;1.60;;
37869;SDS011;62531;53.326;-1.368;2022-07-29T14:25:13;5.55;;;1.50;;
37869;SDS011;62531;53.326;-1.368;2022-07-29T14:29:15;5.60;;;1.33;;
37869;SDS011;62531;53.326;-1.368;2022-07-29T14:33:16;7.72;;;1.20;;
37869;SDS011;62531;53.326;-1.368;2022-07-29T14:37:17;6.57;;;1.88;;
37869;SDS011;62531;53.326;-1.368;2022-07-29T14:41:18;5.50;;;1.67;;
37869;SDS011;62531;53.326;-1.368;2022-07-29T14:45:19;6.05;;;1.50;;
37869;SDS011;62531;53.326;-1.368;2022-07-29T14:49:21;9.65;;;1.90;;
37869;SDS011;62531;53.326;-1.368;2022-07-29T14:53:22;6.30;;;2.08;;
37869;SDS011;62531;53.326;-1.368;2022-07-29T14:57:24;6.53;;;1.60;;
37869;SDS011;62531;53.326;-1.368;2022-07-29T15:01:25;5.68;;;1.40;;
37869;SDS011;62531;53.326;-1.368;2022-07-29T15:05:26;5.57;;;1.60;;
37869;SDS011;62531;53.326;-1.368;2022-07-29T15:09:27;6.47;;;1.80;;
37869;SDS011;62531;53.326;-1.368;2022-07-29T15:13:29;8.00;;;1.98;;
37869;SDS011;62531;53.326;-1.368;2022-07-29T15:17:30;5.32;;;2.10;;
37869;SDS011;62531;53.326;-1.368;2022-07-29T15:21:31;8.87;;;2.13;;
37869;SDS011;62531;53.326;-1.368;2022-07-29T15:25:32;5.85;;;1.60;;
37869;SDS011;62531;53.326;-1.368;2022-07-29T15:29:37;5.45;;;1.40;;
37869;SDS011;62531;53.326;-1.368;2022-07-29T15:33:39;6.97;;;1.60;;
37869;SDS011;62531;53.326;-1.368;2022-07-29T15:37:40;5.87;;;1.40;;
37869;SDS011;62531;53.326;-1.368;2022-07-29T15:41:42;5.13;;;1.73;;
37869;SDS011;62531;53.326;-1.368;2022-07-29T15:45:43;6.85;;;1.70;;
37869;SDS011;62531;53.326;-1.368;2022-07-29T15:50:03;5.23;;;1.50;;
37869;SDS011;62531;53.326;-1.368;2022-07-29T15:54:06;7.53;;;1.50;;
37869;SDS011;62531;53.326;-1.368;2022-07-29T15:58:07;6.15;;;1.80;;
37869;SDS011;62531;53.326;-1.368;2022-07-29T16:02:09;7.27;;;1.87;;
37869;SDS011;62531;53.326;-1.368;2022-07-29T16:06:10;6.20;;;1.52;;
37869;SDS011;62531;53.326;-1.368;2022-07-29T16:10:11;5.57;;;1.70;;
37869;SDS011;62531;53.326;-1.368;2022-07-29T16:14:13;7.40;;;1.48;;
37869;SDS011;62531;53.326;-1.368;2022-07-29T16:18:14;6.60;;;2.00;;
37869;SDS011;62531;53.326;-1.368;2022-07-29T16:22:15;5.68;;;1.52;;
37869;SDS011;62531;53.326;-1.368;2022-07-29T16:26:16;5.80;;;1.60;;
37869;SDS011;62531;53.326;-1.368;2022-07-29T16:30:18;6.33;;;1.43;;
37869;SDS011;62531;53.326;-1.368;2022-07-29T16:34:19;4.43;;;1.33;;
37869;SDS011;62531;53.326;-1.368;2022-07-29T16:38:21;9.90;;;1.67;;
37869;SDS011;62531;53.326;-1.368;2022-07-29T16:42:22;6.03;;;1.57;;
37869;SDS011;62531;53.326;-1.368;2022-07-29T16:46:23;6.72;;;1.40;;
37869;SDS011;62531;53.326;-1.368;2022-07-29T16:50:24;5.75;;;1.95;;
37869;SDS011;62531;53.326;-1.368;2022-07-29T16:54:27;5.72;;;1.60;;
37869;SDS011;62531;53.326;-1.368;2022-07-29T16:58:28;6.77;;;2.00;;
37869;SDS011;62531;53.326;-1.368;2022-07-29T17:02:29;6.45;;;1.85;;
37869;SDS011;62531;53.326;-1.368;2022-07-29T17:06:31;6.78;;;2.05;;
37869;SDS011;62531;53.326;-1.368;2022-07-29T17:10:34;8.30;;;2.33;;
37869;SDS011;62531;53.326;-1.368;2022-07-29T17:14:35;8.73;;;2.40;;
37869;SDS011;62531;53.326;-1.368;2022-07-29T17:18:36;8.98;;;2.92;;
37869;SDS011;62531;53.326;-1.368;2022-07-29T17:22:38;8.90;;;3.10;;
37869;SDS011;62531;53.326;-1.368;2022-07-29T17:26:39;13.98;;;3.22;;
37869;SDS011;62531;53.326;-1.368;2022-07-29T17:30:42;12.82;;;3.80;;
37869;SDS011;62531;53.326;-1.368;2022-07-29T17:34:43;15.15;;;4.38;;
37869;SDS011;62531;53.326;-1.368;2022-07-29T17:38:45;14.97;;;4.07;;
37869;SDS011;62531;53.326;-1.368;2022-07-29T17:42:46;12.60;;;4.20;;
37869;SDS011;62531;53.326;-1.368;2022-07-29T17:46:48;13.82;;;4.03;;
37869;SDS011;62531;53.326;-1.368;2022-07-29T17:50:50;13.67;;;3.90;;
37869;SDS011;62531;53.326;-1.368;2022-07-29T17:54:51;9.30;;;2.80;;
37869;SDS011;62531;53.326;-1.368;2022-07-29T17:58:52;11.85;;;3.28;;
37869;SDS011;62531;53.326;-1.368;2022-07-29T18:02:53;10.33;;;3.10;;
37869;SDS011;62531;53.326;-1.368;2022-07-29T18:06:55;9.95;;;2.88;;
37869;SDS011;62531;53.326;-1.368;2022-07-29T18:10:56;11.23;;;2.70;;
37869;SDS011;62531;53.326;-1.368;2022-07-29T18:14:58;10.07;;;2.70;;
37869;SDS011;62531;53.326;-1.368;2022-07-29T18:18:59;10.77;;;2.80;;
37869;SDS011;62531;53.326;-1.368;2022-07-29T18:23:00;9.23;;;2.70;;
37869;SDS011;62531;53.326;-1.368;2022-07-29T18:27:01;10.77;;;3.03;;
37869;SDS011;62531;53.326;-1.368;2022-07-29T18:31:03;8.03;;;2.60;;
37869;SDS011;62531;53.326;-1.368;2022-07-29T18:35:04;7.65;;;2.58;;
37869;SDS011;62531;53.326;-1.368;2022-07-29T18:39:05;9.55;;;2.70;;
37869;SDS011;62531;53.326;-1.368;2022-07-29T18:43:07;7.97;;;2.93;;
37869;SDS011;62531;53.326;-1.368;2022-07-29T18:47:09;7.85;;;2.00;;
37869;SDS011;62531;53.326;-1.368;2022-07-29T18:51:10;7.93;;;2.42;;
37869;SDS011;62531;53.326;-1.368;2022-07-29T18:55:11;7.40;;;2.70;;
37869;SDS011;62531;53.326;-1.368;2022-07-29T18:59:13;11.00;;;3.00;;
37869;SDS011;62531;53.326;-1.368;2022-07-29T19:03:20;8.00;;;2.67;;
37869;SDS011;62531;53.326;-1.368;2022-07-29T19:07:22;6.40;;;2.60;;
37869;SDS011;62531;53.326;-1.368;2022-07-29T19:11:26;8.43;;;2.73;;
37869;SDS011;62531;53.326;-1.368;2022-07-29T19:15:27;7.32;;;2.25;;
37869;SDS011;62531;53.326;-1.368;2022-07-29T19:19:29;7.25;;;2.05;;
37869;SDS011;62531;53.326;-1.368;2022-07-29T19:23:30;8.00;;;2.40;;
37869;SDS011;62531;53.326;-1.368;2022-07-29T19:27:31;9.63;;;2.67;;
37869;SDS011;62531;53.326;-1.368;2022-07-29T19:31:32;7.53;;;2.65;;
37869;SDS011;62531;53.326;-1.368;2022-07-29T19:35:33;7.30;;;2.25;;
37869;SDS011;62531;53.326;-1.368;2022-07-29T19:39:34;6.70;;;2.13;;
37869;SDS011;62531;53.326;-1.368;2022-07-29T19:43:36;5.47;;;2.00;;
37869;SDS011;62531;53.326;-1.368;2022-07-29T19:47:38;7.75;;;2.20;;
37869;SDS011;62531;53.326;-1.368;2022-07-29T19:51:39;5.57;;;1.60;;
37869;SDS011;62531;53.326;-1.368;2022-07-29T19:55:41;6.82;;;1.80;;
37869;SDS011;62531;53.326;-1.368;2022-07-29T19:59:42;6.93;;;2.60;;
37869;SDS011;62531;53.326;-1.368;2022-07-29T20:03:44;5.80;;;1.90;;
37869;SDS011;62531;53.326;-1.368;2022-07-29T20:07:46;5.88;;;1.90;;
37869;SDS011;62531;53.326;-1.368;2022-07-29T20:11:47;6.22;;;2.17;;
37869;SDS011;62531;53.326;-1.368;2022-07-29T20:15:48;8.30;;;2.13;;
37869;SDS011;62531;53.326;-1.368;2022-07-29T20:19:50;5.57;;;1.90;;
37869;SDS011;62531;53.326;-1.368;2022-07-29T20:23:51;7.47;;;2.00;;
37869;SDS011;62531;53.326;-1.368;2022-07-29T20:27:56;5.95;;;2.00;;
37869;SDS011;62531;53.326;-1.368;2022-07-29T20:31:57;6.70;;;2.17;;
37869;SDS011;62531;53.326;-1.368;2022-07-29T20:35:58;5.25;;;2.10;;
37869;SDS011;62531;53.326;-1.368;2022-07-29T20:39:59;6.38;;;1.60;;
37869;SDS011;62531;53.326;-1.368;2022-07-29T20:44:02;5.80;;;2.37;;
37869;SDS011;62531;53.326;-1.368;2022-07-29T20:48:04;7.22;;;2.03;;
37869;SDS011;62531;53.326;-1.368;2022-07-29T20:52:07;8.13;;;2.28;;
37869;SDS011;62531;53.326;-1.368;2022-07-29T20:56:08;5.88;;;2.28;;
37869;SDS011;62531;53.326;-1.368;2022-07-29T21:00:10;5.63;;;2.00;;
37869;SDS011;62531;53.326;-1.368;2022-07-29T21:04:12;6.13;;;2.35;;
37869;SDS011;62531;53.326;-1.368;2022-07-29T21:08:13;5.35;;;1.80;;
37869;SDS011;62531;53.326;-1.368;2022-07-29T21:12:14;6.10;;;2.07;;
37869;SDS011;62531;53.326;-1.368;2022-07-29T21:16:15;6.00;;;2.10;;
37869;SDS011;62531;53.326;-1.368;2022-07-29T21:20:19;6.35;;;2.00;;
37869;SDS011;62531;53.326;-1.368;2022-07-29T21:24:21;5.83;;;1.50;;
37869;SDS011;62531;53.326;-1.368;2022-07-29T21:28:22;5.30;;;2.03;;
37869;SDS011;62531;53.326;-1.368;2022-07-29T21:32:27;5.95;;;2.15;;
37869;SDS011;62531;53.326;-1.368;2022-07-29T21:36:28;5.25;;;1.52;;
37869;SDS011;62531;53.326;-1.368;2022-07-29T21:40:29;4.70;;;1.87;;
37869;SDS011;62531;53.326;-1.368;2022-07-29T21:44:31;5.45;;;1.80;;
37869;SDS011;62531;53.326;-1.368;2022-07-29T21:48:32;5.50;;;1.73;;
37869;SDS011;62531;53.326;-1.368;2022-07-29T21:52:33;4.67;;;1.33;;
37869;SDS011;62531;53.326;-1.368;2022-07-29T21:56:37;6.13;;;1.60;;
37869;SDS011;62531;53.326;-1.368;2022-07-29T22:00:40;5.53;;;1.85;;
37869;SDS011;62531;53.326;-1.368;2022-07-29T22:04:41;5.37;;;1.83;;
37869;SDS011;62531;53.326;-1.368;2022-07-29T22:08:42;5.65;;;1.23;;
37869;SDS011;62531;53.326;-1.368;2022-07-29T22:12:45;6.22;;;1.52;;
37869;SDS011;62531;53.326;-1.368;2022-07-29T22:16:46;6.00;;;1.65;;
37869;SDS011;62531;53.326;-1.368;2022-07-29T22:20:48;5.37;;;1.73;;
37869;SDS011;62531;53.326;-1.368;2022-07-29T22:24:50;7.03;;;1.92;;
37869;SDS011;62531;53.326;-1.368;2022-07-29T22:28:51;4.63;;;1.30;;
37869;SDS011;62531;53.326;-1.368;2022-07-29T22:32:52;6.87;;;1.77;;
37869;SDS011;62531;53.326;-1.368;2022-07-29T22:36:53;5.03;;;1.70;;
37869;SDS011;62531;53.326;-1.368;2022-07-29T22:40:54;5.60;;;1.90;;
37869;SDS011;62531;53.326;-1.368;2022-07-29T22:44:56;4.50;;;1.63;;
37869;SDS011;62531;53.326;-1.368;2022-07-29T22:48:57;5.38;;;1.60;;
37869;SDS011;62531;53.326;-1.368;2022-07-29T22:52:59;5.70;;;1.70;;
37869;SDS011;62531;53.326;-1.368;2022-07-29T22:57:00;5.00;;;1.50;;
37869;SDS011;62531;53.326;-1.368;2022-07-29T23:01:01;4.43;;;1.10;;
37869;SDS011;62531;53.326;-1.368;2022-07-29T23:05:05;4.90;;;1.63;;
37869;SDS011;62531;53.326;-1.368;2022-07-29T23:09:08;5.30;;;1.60;;
37869;SDS011;62531;53.326;-1.368;2022-07-29T23:13:09;4.70;;;1.20;;
37869;SDS011;62531;53.326;-1.368;2022-07-29T23:17:10;4.18;;;1.20;;
37869;SDS011;62531;53.326;-1.368;2022-07-29T23:21:12;4.38;;;1.30;;
37869;SDS011;62531;53.326;-1.368;2022-07-29T23:25:13;5.17;;;1.70;;
37869;SDS011;62531;53.326;-1.368;2022-07-29T23:29:15;5.85;;;1.75;;
37869;SDS011;62531;53.326;-1.368;2022-07-29T23:33:16;5.90;;;1.92;;
37869;SDS011;62531;53.326;-1.368;2022-07-29T23:37:17;4.80;;;1.70;;
37869;SDS011;62531;53.326;-1.368;2022-07-29T23:41:18;4.80;;;1.60;;
37869;SDS011;62531;53.326;-1.368;2022-07-29T23:45:20;5.32;;;1.83;;
37869;SDS011;62531;53.326;-1.368;2022-07-29T23:49:22;4.50;;;1.17;;
37869;SDS011;62531;53.326;-1.368;2022-07-29T23:53:23;4.83;;;1.30;;
37869;SDS011;62531;53.326;-1.368;2022-07-29T23:57:24;5.10;;;1.67;;
